createdAt,value
2017-11-28T00:01:12.438Z,99686.44
2017-11-28T00:03:41.624Z,99687.84
2017-11-28T00:06:11.040Z,99686.62
2017-11-28T00:08:40.266Z,99681.92
2017-11-28T00:11:08.636Z,99684.69
2017-11-28T00:13:37.055Z,99686.63
2017-11-28T00:16:05.782Z,99692.44
2017-11-28T00:18:35.124Z,99687.31
2017-11-28T00:21:03.892Z,99688.52
2017-11-28T00:23:32.363Z,99682.53
2017-11-28T00:26:01.010Z,99689.03
2017-11-28T00:28:29.529Z,99682.22
2017-11-28T00:30:58.131Z,99677.08
2017-11-28T00:33:26.513Z,99677.65
2017-11-28T00:35:54.978Z,99667.16
2017-11-28T00:38:23.391Z,99665.41
2017-11-28T00:40:52.793Z,99665.81
2017-11-28T00:43:21.556Z,99671.75
2017-11-28T00:45:50.144Z,99673.33
2017-11-28T00:48:18.504Z,99662.26
2017-11-28T00:50:46.949Z,99660.72
2017-11-28T00:53:15.334Z,99662.30
2017-11-28T00:55:43.859Z,99659.37
2017-11-28T00:58:12.442Z,99657.95
2017-11-28T01:00:40.985Z,99655.76
2017-11-28T01:03:09.400Z,99659.69
2017-11-28T01:05:37.882Z,99659.55
2017-11-28T01:08:06.362Z,99655.84
2017-11-28T01:10:34.778Z,99654.64
2017-11-28T01:13:03.246Z,99652.72
2017-11-28T01:15:31.801Z,99649.20
2017-11-28T01:18:00.169Z,99649.49
2017-11-28T01:20:29.375Z,99646.23
2017-11-28T01:22:58.637Z,99645.28
2017-11-28T01:25:27.155Z,99647.62
2017-11-28T01:27:56.352Z,99653.96
2017-11-28T01:30:24.832Z,99649.05
2017-11-28T01:32:53.211Z,99644.23
2017-11-28T01:35:21.754Z,99642.23
2017-11-28T01:37:50.272Z,99640.23
2017-11-28T01:40:19.459Z,99638.41
2017-11-28T01:42:48.771Z,99636.56
2017-11-28T01:45:17.162Z,99640.13
2017-11-28T01:47:45.577Z,99630.16
2017-11-28T01:50:13.934Z,99622.53
2017-11-28T01:52:42.297Z,99618.88
2017-11-28T01:55:10.676Z,99617.73
2017-11-28T01:57:39.137Z,99609.45
2017-11-28T02:00:08.254Z,99613.14
2017-11-28T02:02:36.658Z,99609.73
2017-11-28T02:05:05.072Z,99608.85
2017-11-28T02:07:33.486Z,99614.59
2017-11-28T02:10:01.886Z,99607.84
2017-11-28T02:12:30.334Z,99610.48
2017-11-28T02:14:59.795Z,99609.98
2017-11-28T02:17:28.116Z,99610.39
2017-11-28T02:19:57.401Z,99608.73
2017-11-28T02:22:25.775Z,99610.33
2017-11-28T02:24:54.182Z,99623.48
2017-11-28T02:27:23.409Z,99633.80
2017-11-28T02:29:51.860Z,99629.68
2017-11-28T02:32:21.030Z,99636.84
2017-11-28T02:34:49.440Z,99650.79
2017-11-28T02:37:17.814Z,99642.83
2017-11-28T02:39:46.897Z,99645.23
2017-11-28T02:42:16.108Z,99637.36
2017-11-28T02:44:45.435Z,99640.59
2017-11-28T02:47:14.095Z,99633.44
2017-11-28T02:49:57.103Z,99639.84
2017-11-28T02:52:25.493Z,99640.19
2017-11-28T02:55:15.546Z,99651.66
2017-11-28T02:57:43.943Z,99665.56
2017-11-28T03:00:12.341Z,99669.98
2017-11-28T03:02:41.462Z,99672.42
2017-11-28T03:05:09.913Z,99670.84
2017-11-28T03:07:39.110Z,99666.14
2017-11-28T03:13:06.854Z,99659.45
2017-11-28T03:15:38.738Z,99660.21
2017-11-28T03:18:20.547Z,99652.66
2017-11-28T03:20:55.538Z,99650.06
2017-11-28T03:26:32.331Z,99630.44
2017-11-28T03:29:26.359Z,99620.81
2017-11-28T03:31:55.713Z,99613.79
2017-11-28T03:34:24.129Z,99608.80
2017-11-28T03:36:53.403Z,99608.33
2017-11-28T03:39:21.798Z,99611.44
2017-11-28T03:41:50.224Z,99603.80
2017-11-28T03:44:33.022Z,99607.09
2017-11-28T03:47:01.494Z,99598.69
2017-11-28T03:49:30.686Z,99602.86
2017-11-28T03:52:00.715Z,99605.69
2017-11-28T03:54:29.914Z,99597.05
2017-11-28T03:56:58.374Z,99605.34
2017-11-28T03:59:26.817Z,99596.11
2017-11-28T04:01:55.361Z,99597.81
2017-11-28T04:04:23.762Z,99601.05
2017-11-28T04:06:52.244Z,99599.13
2017-11-28T04:09:20.610Z,99600.88
2017-11-28T04:11:49.001Z,99600.86
2017-11-28T04:14:17.410Z,99607.81
2017-11-28T04:16:45.817Z,99608.84
2017-11-28T04:19:14.342Z,99604.20
2017-11-28T04:21:42.718Z,99611.20
2017-11-28T04:24:11.097Z,99620.10
2017-11-28T04:26:39.535Z,99607.20
2017-11-28T04:29:07.913Z,99605.02
2017-11-28T04:31:37.049Z,99596.66
2017-11-28T04:34:05.521Z,99596.19
2017-11-28T04:36:33.975Z,99597.45
2017-11-28T04:39:03.178Z,99594.66
2017-11-28T04:41:31.549Z,99592.94
2017-11-28T04:44:00.745Z,99595.73
2017-11-28T04:46:29.076Z,99593.45
2017-11-28T04:48:57.455Z,99587.11
2017-11-28T04:51:25.826Z,99579.64
2017-11-28T04:53:54.204Z,99572.92
2017-11-28T04:56:22.667Z,99571.62
2017-11-28T04:58:51.143Z,99570.84
2017-11-28T05:01:19.577Z,99556.83
2017-11-28T05:03:47.983Z,99573.34
2017-11-28T05:06:16.356Z,99572.28
2017-11-28T05:08:44.731Z,99583.30
2017-11-28T05:11:13.150Z,99577.75
2017-11-28T05:13:41.720Z,99562.93
2017-11-28T05:16:10.380Z,99577.03
2017-11-28T05:18:38.757Z,99576.63
2017-11-28T05:21:07.160Z,99518.36
2017-11-28T05:23:35.503Z,99581.09
2017-11-28T05:26:03.892Z,99588.52
2017-11-28T05:28:32.272Z,99592.46
2017-11-28T05:31:00.648Z,99595.32
2017-11-28T05:33:28.961Z,99567.59
2017-11-28T05:35:57.302Z,99595.52
2017-11-28T05:38:25.694Z,99590.70
2017-11-28T05:40:54.845Z,99603.80
2017-11-28T05:43:23.246Z,99597.73
2017-11-28T05:45:52.428Z,99595.05
2017-11-28T05:48:20.791Z,99599.80
2017-11-28T05:50:49.138Z,99606.37
2017-11-28T05:53:21.889Z,99593.77
2017-11-28T05:55:50.307Z,99588.59
2017-11-28T05:58:19.675Z,99590.30
2017-11-28T06:00:52.147Z,99578.54
2017-11-28T06:03:20.581Z,99576.64
2017-11-28T06:05:48.921Z,99576.88
2017-11-28T06:08:19.206Z,99567.81
2017-11-28T06:10:47.526Z,99567.19
2017-11-28T06:13:16.591Z,99569.38
2017-11-28T06:15:44.894Z,99572.89
2017-11-28T06:18:13.214Z,99574.19
2017-11-28T06:20:41.510Z,99575.60
2017-11-28T06:23:09.806Z,99576.08
2017-11-28T06:25:38.122Z,99588.02
2017-11-28T06:28:07.175Z,99589.77
2017-11-28T06:30:35.463Z,99579.23
2017-11-28T06:33:03.769Z,99573.30
2017-11-28T06:35:36.733Z,99581.59
2017-11-28T06:38:05.807Z,99578.42
2017-11-28T06:40:35.237Z,99583.06
2017-11-28T06:43:04.311Z,99580.77
2017-11-28T06:45:32.612Z,99579.63
2017-11-28T06:48:01.746Z,99582.20
2017-11-28T06:50:30.039Z,99577.46
2017-11-28T06:52:58.357Z,99574.88
2017-11-28T06:55:28.346Z,99579.31
2017-11-28T06:57:56.651Z,99587.76
2017-11-28T07:00:25.467Z,99588.81
2017-11-28T07:02:54.565Z,99586.72
2017-11-28T07:05:22.866Z,99584.81
2017-11-28T07:07:51.170Z,99584.33
2017-11-28T07:10:19.482Z,99585.47
2017-11-28T07:12:48.560Z,99584.98
2017-11-28T07:15:16.897Z,99589.84
2017-11-28T07:17:45.198Z,99589.05
2017-11-28T07:20:14.429Z,99591.77
2017-11-28T07:22:43.492Z,99593.22
2017-11-28T07:25:11.793Z,99596.58
2017-11-28T07:27:40.869Z,99591.63
2017-11-28T07:30:09.170Z,99586.19
2017-11-28T07:32:38.258Z,99571.22
2017-11-28T07:35:07.327Z,99581.16
2017-11-28T07:37:35.609Z,99588.66
2017-11-28T07:40:03.918Z,99581.58
2017-11-28T07:42:32.972Z,99592.96
2017-11-28T07:45:01.274Z,99595.92
2017-11-28T07:47:30.338Z,99604.54
2017-11-28T07:49:58.646Z,99603.83
2017-11-28T07:52:27.707Z,99591.11
2017-11-28T07:54:56.030Z,99604.98
2017-11-28T07:57:25.102Z,99595.10
2017-11-28T07:59:53.394Z,99584.50
2017-11-28T08:02:22.469Z,99593.11
2017-11-28T08:04:50.753Z,99598.87
2017-11-28T08:07:19.064Z,99597.82
2017-11-28T08:09:47.362Z,99601.46
2017-11-28T08:12:15.690Z,99605.97
2017-11-28T08:14:43.978Z,99613.49
2017-11-28T08:17:13.049Z,99620.06
2017-11-28T08:19:41.362Z,99616.69
2017-11-28T08:22:09.682Z,99617.64
2017-11-28T08:24:37.974Z,99626.62
2017-11-28T08:27:06.281Z,99628.45
2017-11-28T08:29:35.344Z,99624.69
2017-11-28T08:32:03.653Z,99621.36
2017-11-28T08:34:32.717Z,99628.67
2017-11-28T08:37:01.023Z,99629.79
2017-11-28T08:39:30.086Z,99624.62
2017-11-28T08:41:58.411Z,99628.00
2017-11-28T08:44:26.710Z,99631.16
2017-11-28T08:46:55.007Z,99634.91
2017-11-28T08:49:23.322Z,99632.80
2017-11-28T08:51:52.400Z,99639.83
2017-11-28T08:54:20.689Z,99630.03
2017-11-28T08:56:48.988Z,99634.02
2017-11-28T08:59:18.068Z,99630.38
2017-11-28T09:01:47.135Z,99620.52
2017-11-28T09:04:15.454Z,99615.54
2017-11-28T09:06:44.514Z,99626.30
2017-11-28T09:09:12.855Z,99625.97
2017-11-28T09:11:41.149Z,99634.77
2017-11-28T09:14:10.223Z,99637.55
2017-11-28T09:16:38.546Z,99634.95
2017-11-28T09:19:06.858Z,99638.11
2017-11-28T09:21:35.183Z,99632.10
2017-11-28T09:24:03.488Z,99630.27
2017-11-28T09:26:31.785Z,99631.62
2017-11-28T09:29:00.087Z,99633.78
2017-11-28T09:31:28.401Z,99630.80
2017-11-28T09:33:56.778Z,99628.78
2017-11-28T09:36:25.067Z,99632.63
2017-11-28T09:38:53.698Z,99628.59
2017-11-28T09:41:21.993Z,99625.33
2017-11-28T09:43:50.295Z,99634.02
2017-11-28T09:46:18.583Z,99625.55
2017-11-28T09:48:46.882Z,99632.17
2017-11-28T09:51:15.946Z,99622.88
2017-11-28T09:53:44.223Z,99621.64
2017-11-28T09:56:13.141Z,99615.80
2017-11-28T09:58:42.236Z,99615.33
2017-11-28T10:01:10.555Z,99617.92
2017-11-28T10:03:38.849Z,99625.91
2017-11-28T10:06:07.149Z,99637.39
2017-11-28T10:08:35.441Z,99640.44
2017-11-28T10:11:04.510Z,99640.05
2017-11-28T10:13:32.830Z,99640.31
2017-11-28T10:16:01.903Z,99629.55
2017-11-28T10:18:30.190Z,99624.41
2017-11-28T10:20:59.280Z,99618.73
2017-11-28T10:23:28.343Z,99620.06
2017-11-28T10:25:56.666Z,99617.33
2017-11-28T10:28:25.734Z,99612.99
2017-11-28T10:30:54.042Z,99615.77
2017-11-28T10:33:22.360Z,99602.02
2017-11-28T10:35:51.182Z,99606.02
2017-11-28T10:38:19.498Z,99600.53
2017-11-28T10:40:47.805Z,99601.11
2017-11-28T10:43:16.112Z,99593.22
2017-11-28T10:45:44.395Z,99586.72
2017-11-28T10:48:13.469Z,99594.00
2017-11-28T10:50:41.764Z,99595.98
2017-11-28T10:53:10.837Z,99593.05
2017-11-28T10:55:39.135Z,99588.42
2017-11-28T10:58:07.451Z,99583.51
2017-11-28T11:00:35.748Z,99586.30
2017-11-28T11:03:04.054Z,99584.03
2017-11-28T11:05:32.366Z,99590.37
2017-11-28T11:08:01.471Z,99579.73
2017-11-28T11:10:29.766Z,99584.08
2017-11-28T11:12:58.065Z,99589.22
2017-11-28T11:15:26.373Z,99583.63
2017-11-28T11:17:54.668Z,99579.11
2017-11-28T11:20:22.965Z,99581.71
2017-11-28T11:22:51.260Z,99578.02
2017-11-28T11:25:19.561Z,99582.61
2017-11-28T11:27:47.859Z,99580.98
2017-11-28T11:30:16.182Z,99579.97
2017-11-28T11:32:44.467Z,99585.09
2017-11-28T11:35:12.765Z,99578.94
2017-11-28T11:37:41.064Z,99577.80
2017-11-28T11:40:09.361Z,99572.36
2017-11-28T11:42:37.661Z,99580.65
2017-11-28T11:45:05.970Z,99582.48
2017-11-28T11:47:34.271Z,99574.35
2017-11-28T11:50:03.342Z,99566.52
2017-11-28T11:52:31.638Z,99575.34
2017-11-28T11:55:00.086Z,99572.47
2017-11-28T11:57:28.371Z,99574.35
2017-11-28T11:59:56.689Z,99569.76
2017-11-28T12:02:25.015Z,99570.50
2017-11-28T12:04:53.313Z,99563.05
2017-11-28T12:07:21.622Z,99555.42
2017-11-28T12:09:50.675Z,99563.87
2017-11-28T12:12:18.994Z,99561.23
2017-11-28T12:14:48.066Z,99558.82
2017-11-28T12:17:16.369Z,99558.55
2017-11-28T12:19:45.434Z,99553.91
2017-11-28T12:22:13.775Z,99549.56
2017-11-28T12:24:42.068Z,99557.08
2017-11-28T12:27:10.394Z,99553.92
2017-11-28T12:29:39.444Z,99550.94
2017-11-28T12:32:07.755Z,99554.39
2017-11-28T12:34:36.810Z,99553.67
2017-11-28T12:37:05.131Z,99558.66
2017-11-28T12:39:34.190Z,99552.95
2017-11-28T12:42:02.530Z,99552.34
2017-11-28T12:44:30.858Z,99548.27
2017-11-28T12:46:59.162Z,99549.62
2017-11-28T12:49:28.235Z,99555.09
2017-11-28T12:51:56.521Z,99544.33
2017-11-28T12:54:24.830Z,99552.16
2017-11-28T12:56:53.118Z,99558.91
2017-11-28T12:59:23.034Z,99557.05
2017-11-28T13:01:51.326Z,99556.22
2017-11-28T13:04:19.633Z,99562.57
2017-11-28T13:06:47.945Z,99561.00
2017-11-28T13:09:16.280Z,99563.14
2017-11-28T13:11:44.578Z,99560.02
2017-11-28T13:14:12.890Z,99547.14
2017-11-28T13:16:41.197Z,99556.55
2017-11-28T13:19:10.269Z,99557.51
2017-11-28T13:21:38.564Z,99535.28
2017-11-28T13:24:06.896Z,99555.70
2017-11-28T13:26:35.959Z,99549.72
2017-11-28T13:29:04.259Z,99548.38
2017-11-28T13:31:33.336Z,99557.93
2017-11-28T13:34:01.636Z,99554.66
2017-11-28T13:36:30.702Z,99552.16
2017-11-28T13:38:59.003Z,99551.13
2017-11-28T13:41:28.074Z,99555.71
2017-11-28T13:43:56.382Z,99547.65
2017-11-28T13:46:25.454Z,99556.58
2017-11-28T13:48:53.766Z,99565.04
2017-11-28T13:51:22.070Z,99560.59
2017-11-28T13:53:50.370Z,99563.91
2017-11-28T13:56:18.742Z,99564.80
2017-11-28T13:58:47.085Z,99575.74
2017-11-28T14:01:15.402Z,99574.66
2017-11-28T14:03:43.702Z,99575.51
2017-11-28T14:06:12.006Z,99576.91
2017-11-28T14:08:40.359Z,99584.09
2017-11-28T14:11:08.699Z,99583.70
2017-11-28T14:13:36.989Z,99577.95
2017-11-28T14:16:05.310Z,99576.99
2017-11-28T14:18:33.615Z,99575.36
2017-11-28T14:21:04.665Z,99574.56
2017-11-28T14:23:38.570Z,99576.13
2017-11-28T14:29:20.340Z,99579.51
2017-11-28T14:32:07.051Z,99588.70
2017-11-28T14:34:39.459Z,99592.97
2017-11-28T14:37:07.758Z,99597.56
2017-11-28T14:39:36.058Z,99594.80
2017-11-28T14:42:09.938Z,99599.67
2017-11-28T14:44:44.374Z,99601.63
2017-11-28T14:47:13.678Z,99603.38
2017-11-28T14:49:42.224Z,99603.52
2017-11-28T15:08:56.543Z,99619.43
2017-11-28T15:11:39.789Z,99618.02
2017-11-28T15:17:21.482Z,99619.90
2017-11-28T15:19:52.355Z,99619.65
2017-11-28T15:22:20.817Z,99623.06
2017-11-28T15:24:50.072Z,99622.28
2017-11-28T15:27:19.371Z,99617.61
2017-11-28T15:29:47.792Z,99619.05
2017-11-28T15:32:16.208Z,99622.63
2017-11-28T15:34:45.156Z,99619.94
2017-11-28T15:37:13.510Z,99626.23
2017-11-28T15:39:41.856Z,99629.69
2017-11-28T15:42:10.218Z,99635.78
2017-11-28T15:44:38.675Z,99629.69
2017-11-28T15:47:07.775Z,99632.20
2017-11-28T15:49:36.834Z,99628.88
2017-11-28T15:52:05.152Z,99630.73
2017-11-28T15:54:34.219Z,99630.09
2017-11-28T15:57:02.525Z,99637.73
2017-11-28T15:59:31.600Z,99640.55
2017-11-28T16:01:59.905Z,99644.41
2017-11-28T16:04:28.198Z,99647.23
2017-11-28T16:06:56.515Z,99639.60
2017-11-28T16:09:24.831Z,99641.23
2017-11-28T16:11:53.898Z,99640.66
2017-11-28T16:14:22.227Z,99642.08
2017-11-28T16:16:50.556Z,99645.88
2017-11-28T16:19:18.852Z,99642.75
2017-11-28T16:21:47.157Z,99643.64
2017-11-28T16:24:15.522Z,99641.94
2017-11-28T16:26:43.913Z,99639.31
2017-11-28T16:29:12.232Z,99640.72
2017-11-28T16:31:40.549Z,99650.31
2017-11-28T16:34:08.858Z,99648.44
2017-11-28T16:36:37.196Z,99635.66
2017-11-28T16:39:05.462Z,99636.31
2017-11-28T16:41:34.563Z,99642.22
2017-11-28T16:44:03.616Z,99644.58
2017-11-28T16:46:31.924Z,99647.06
2017-11-28T16:49:00.221Z,99638.12
2017-11-28T16:51:29.279Z,99631.95
2017-11-28T16:53:57.585Z,99632.55
2017-11-28T16:56:26.661Z,99631.67
2017-11-28T16:58:54.990Z,99629.57
2017-11-28T17:01:23.309Z,99633.96
2017-11-28T17:03:52.302Z,99632.43
2017-11-28T17:06:20.624Z,99629.57
2017-11-28T17:08:48.911Z,99633.89
2017-11-28T17:11:17.207Z,99621.23
2017-11-28T17:13:46.283Z,99627.33
2017-11-28T17:16:14.591Z,99637.34
2017-11-28T17:18:42.891Z,99636.38
2017-11-28T17:21:11.210Z,99643.84
2017-11-28T17:23:39.514Z,99638.97
2017-11-28T17:26:07.815Z,99636.88
2017-11-28T17:28:36.155Z,99643.06
2017-11-28T17:31:04.474Z,99640.54
2017-11-28T17:33:32.802Z,99639.80
2017-11-28T17:36:01.115Z,99644.03
2017-11-28T17:38:29.424Z,99643.50
2017-11-28T17:40:57.719Z,99646.02
2017-11-28T17:43:26.037Z,99646.67
2017-11-28T17:45:54.333Z,99654.72
2017-11-28T17:48:22.626Z,99654.45
2017-11-28T17:50:51.697Z,99652.80
2017-11-28T17:53:19.989Z,99660.38
2017-11-28T17:55:48.281Z,99659.31
2017-11-28T17:58:17.350Z,99657.89
2017-11-28T18:00:45.696Z,99656.09
2017-11-28T18:03:14.074Z,99656.26
2017-11-28T18:05:42.382Z,99659.28
2017-11-28T18:08:10.674Z,99657.89
2017-11-28T18:10:38.980Z,99662.88
2017-11-28T18:13:07.283Z,99661.26
2017-11-28T18:15:35.583Z,99663.98
2017-11-28T18:18:03.889Z,99666.48
2017-11-28T18:20:32.962Z,99666.72
2017-11-28T18:23:01.262Z,99663.25
2017-11-28T18:25:30.316Z,99664.29
2017-11-28T18:27:58.681Z,99660.41
2017-11-28T18:30:26.969Z,99659.67
2017-11-28T18:32:55.249Z,99665.75
2017-11-28T18:35:23.552Z,99654.41
2017-11-28T18:37:51.843Z,99653.77
2017-11-28T18:40:20.939Z,99651.03
2017-11-28T18:42:50.002Z,99651.43
2017-11-28T18:45:18.292Z,99649.77
2017-11-28T18:47:46.589Z,99646.17
2017-11-28T18:50:15.643Z,99640.95
2017-11-28T18:52:43.937Z,99647.36
2017-11-28T18:55:12.229Z,99651.63
2017-11-28T18:57:41.319Z,99646.05
2017-11-28T19:00:10.386Z,99641.16
2017-11-28T19:02:38.709Z,99638.13
2017-11-28T19:05:07.767Z,99634.02
2017-11-28T19:07:36.067Z,99632.55
2017-11-28T19:10:04.414Z,99637.39
2017-11-28T19:12:32.703Z,99638.42
2017-11-28T19:15:01.011Z,99639.31
2017-11-28T19:17:30.069Z,99650.27
2017-11-28T19:19:58.367Z,99642.69
2017-11-28T19:22:26.659Z,99645.92
2017-11-28T19:24:55.713Z,99644.77
2017-11-28T19:27:24.004Z,99648.95
2017-11-28T19:29:52.292Z,99644.08
2017-11-28T19:32:20.612Z,99652.28
2017-11-28T19:34:48.913Z,99652.95
2017-11-28T19:37:17.235Z,99655.34
2017-11-28T19:39:46.293Z,99658.77
2017-11-28T19:42:14.589Z,99655.75
2017-11-28T19:44:42.891Z,99660.85
2017-11-28T19:47:11.954Z,99656.44
2017-11-28T19:49:40.269Z,99658.52
2017-11-28T19:52:09.338Z,99658.25
2017-11-28T19:54:37.778Z,99652.80
2017-11-28T19:57:06.137Z,99655.09
2017-11-28T19:59:34.452Z,99650.58
2017-11-28T20:02:02.866Z,99662.34
2017-11-28T20:04:31.258Z,99667.67
2017-11-28T20:06:59.571Z,99667.13
2017-11-28T20:09:27.894Z,99666.48
2017-11-28T20:11:56.191Z,99665.27
2017-11-28T20:14:24.506Z,99669.15
2017-11-28T20:16:53.571Z,99665.87
2017-11-28T20:19:21.866Z,99665.84
2017-11-28T20:21:50.177Z,99667.36
2017-11-28T20:24:19.230Z,99661.08
2017-11-28T20:26:47.535Z,99645.49
2017-11-28T20:32:16.038Z,99654.27
2017-11-28T20:34:44.359Z,99656.73
2017-11-28T20:37:12.666Z,99661.44
2017-11-28T20:39:40.995Z,99667.02
2017-11-28T20:42:10.112Z,99661.06
2017-11-28T20:44:38.427Z,99657.34
2017-11-28T20:47:06.738Z,99660.09
2017-11-28T20:49:35.075Z,99659.81
2017-11-28T20:52:03.387Z,99654.98
2017-11-28T20:54:31.714Z,99650.03
2017-11-28T20:57:00.019Z,99653.42
2017-11-28T20:59:28.379Z,99653.02
2017-11-28T21:01:56.688Z,99653.56
2017-11-28T21:04:25.000Z,99651.78
2017-11-28T21:06:54.094Z,99645.30
2017-11-28T21:09:23.158Z,99650.28
2017-11-28T21:11:51.467Z,99649.26
2017-11-28T21:14:20.530Z,99647.64
2017-11-28T21:16:48.850Z,99652.27
2017-11-28T21:19:17.259Z,99648.66
2017-11-28T21:21:45.588Z,99647.42
2017-11-28T21:24:14.667Z,99647.22
2017-11-28T21:26:42.975Z,99639.47
2017-11-28T21:29:12.059Z,99637.39
2017-11-28T21:31:41.135Z,99640.06
2017-11-28T21:34:09.450Z,99642.25
2017-11-28T21:36:37.747Z,99648.11
2017-11-28T21:39:06.075Z,99650.92
2017-11-28T21:41:34.382Z,99653.31
2017-11-28T21:44:02.683Z,99647.44
2017-11-28T21:46:31.003Z,99651.98
2017-11-28T21:48:59.327Z,99646.91
2017-11-28T21:51:27.638Z,99651.75
2017-11-28T21:53:55.948Z,99648.97
2017-11-28T21:56:25.035Z,99657.93
2017-11-28T21:58:53.351Z,99657.64
2017-11-28T22:01:21.664Z,99661.13
2017-11-28T22:03:50.113Z,99658.34
2017-11-28T22:06:18.414Z,99663.11
2017-11-28T22:08:46.748Z,99654.75
2017-11-28T22:11:15.077Z,99658.16
2017-11-28T22:13:44.153Z,99658.80
2017-11-28T22:16:12.468Z,99666.84
2017-11-28T22:18:40.787Z,99668.89
2017-11-28T22:21:09.094Z,99670.34
2017-11-28T22:23:37.431Z,99660.23
2017-11-28T22:26:05.752Z,99670.77
2017-11-28T22:28:34.070Z,99667.67
2017-11-28T22:31:02.408Z,99663.32
2017-11-28T22:33:30.721Z,99672.17
2017-11-28T22:35:59.055Z,99672.80
2017-11-28T22:38:27.375Z,99673.41
2017-11-28T22:40:55.715Z,99667.22
2017-11-28T22:43:24.021Z,99673.41
2017-11-28T22:45:52.340Z,99672.80
2017-11-28T22:48:20.680Z,99672.58
2017-11-28T22:50:48.990Z,99669.71
2017-11-28T22:53:17.312Z,99668.14
2017-11-28T22:55:45.634Z,99675.55
2017-11-28T22:58:14.048Z,99679.97
2017-11-28T23:00:42.356Z,99681.20
2017-11-28T23:03:10.698Z,99681.63
2017-11-28T23:05:39.016Z,99681.64
2017-11-28T23:08:07.320Z,99685.95
2017-11-28T23:10:36.397Z,99685.43
2017-11-28T23:13:04.713Z,99682.45
2017-11-28T23:15:33.032Z,99683.17
2017-11-28T23:18:01.347Z,99684.38
2017-11-28T23:20:30.441Z,99679.53
2017-11-28T23:22:59.507Z,99675.82
2017-11-28T23:25:27.812Z,99676.64
2017-11-28T23:27:56.884Z,99678.09
2017-11-28T23:30:25.215Z,99686.53
2017-11-28T23:32:53.518Z,99680.45
2017-11-28T23:35:21.824Z,99688.90
2017-11-28T23:37:50.136Z,99681.52
2017-11-28T23:40:18.446Z,99687.69
2017-11-28T23:42:46.772Z,99689.09
2017-11-28T23:45:15.834Z,99694.89
2017-11-28T23:47:44.176Z,99690.77
2017-11-28T23:50:12.470Z,99688.33
2017-11-28T23:52:40.780Z,99689.67
2017-11-28T23:55:09.098Z,99695.34
2017-11-28T23:57:37.394Z,99688.46
